Time;durP1;ratioP1;P1;durP2;ratioP2;P2;SDS_P1;SDS_P2;PMS_P1;PMS_P2;Temp;Humidity;BMP_temperature;BMP_pressure;BME280_temperature;BME280_humidity;BME280_pressure;Samples;Min_cycle;Max_cycle;Signal;HPM_P1;HPM_P2
2023/11/20 00:02:17;;;;;;;5.13;1.10;;;11.10;99.90;;;;;;6261980;22;20011;-88
2023/11/20 00:04:43;;;;;;;5.20;1.50;;;11.20;99.90;;;;;;6259508;22;20003;-87
2023/11/20 00:07:08;;;;;;;5.20;1.60;;;11.10;99.90;;;;;;6259427;22;20008;-86
2023/11/20 00:09:35;;;;;;;5.05;1.85;;;11.10;99.90;;;;;;6258506;22;20091;-89
2023/11/20 00:12:01;;;;;;;10.82;1.63;;;11.10;99.90;;;;;;6261404;22;20038;-85
2023/11/20 00:14:27;;;;;;;2.47;0.85;;;11.10;99.90;;;;;;6286224;22;20003;-87
2023/11/20 00:16:52;;;;;;;3.00;1.25;;;11.20;99.90;;;;;;6258107;22;20614;-89
2023/11/20 00:19:18;;;;;;;4.25;1.08;;;11.20;99.90;;;;;;6259393;22;20460;-88
2023/11/20 00:21:45;;;;;;;9.05;3.03;;;11.10;99.90;;;;;;6259378;22;20006;-88
2023/11/20 00:24:11;;;;;;;6.40;1.33;;;11.10;99.90;;;;;;6260258;22;20023;-88
2023/11/20 00:26:37;;;;;;;7.20;1.45;;;11.10;99.90;;;;;;6260214;22;20015;-87
2023/11/20 00:29:06;;;;;;;5.13;1.50;;;11.10;99.90;;;;;;6259340;22;20006;-89
2023/11/20 00:31:34;;;;;;;5.53;1.50;;;11.10;99.90;;;;;;6260422;22;20003;-86
2023/11/20 00:34:00;;;;;;;9.43;1.73;;;11.10;99.90;;;;;;6258894;22;20000;-87
2023/11/20 00:36:26;;;;;;;8.52;1.00;;;11.10;99.90;;;;;;6258418;22;20004;-85
2023/11/20 00:38:52;;;;;;;2.83;0.93;;;11.10;99.90;;;;;;6258741;22;20027;-88
2023/11/20 00:41:19;;;;;;;5.30;1.20;;;11.00;99.90;;;;;;6259665;22;20261;-88
2023/11/20 00:43:45;;;;;;;11.10;1.50;;;11.00;99.90;;;;;;6260157;22;20019;-86
2023/11/20 00:46:13;;;;;;;6.38;1.25;;;11.00;99.90;;;;;;6259478;22;20007;-87
2023/11/20 00:48:39;;;;;;;11.73;1.45;;;10.90;99.90;;;;;;6257852;22;20046;-86
2023/11/20 00:51:05;;;;;;;4.25;1.27;;;10.80;99.90;;;;;;6257077;22;20004;-88
2023/11/20 00:53:31;;;;;;;7.30;1.42;;;10.70;99.90;;;;;;6258431;22;20067;-87
2023/11/20 00:55:57;;;;;;;11.27;1.50;;;10.70;99.90;;;;;;6260526;22;20338;-89
2023/11/20 00:58:23;;;;;;;4.55;1.15;;;10.70;99.90;;;;;;6259947;22;20039;-86
2023/11/20 01:00:51;;;;;;;8.98;1.40;;;10.60;99.90;;;;;;6258275;22;20010;-87
2023/11/20 01:03:17;;;;;;;2.58;0.98;;;10.60;99.90;;;;;;6258633;22;20004;-86
2023/11/20 01:05:43;;;;;;;7.15;1.33;;;10.60;99.90;;;;;;6259681;22;20014;-88
2023/11/20 01:08:09;;;;;;;10.63;1.52;;;10.60;99.90;;;;;;6259523;22;20000;-88
2023/11/20 01:10:35;;;;;;;6.70;1.08;;;10.60;99.90;;;;;;6259440;22;20012;-89
2023/11/20 01:13:01;;;;;;;10.60;1.02;;;10.60;99.90;;;;;;6259315;22;20016;-87
2023/11/20 01:15:29;;;;;;;15.57;1.83;;;10.50;99.90;;;;;;6258161;22;20012;-87
2023/11/20 01:17:55;;;;;;;9.90;1.65;;;10.60;99.90;;;;;;6285384;22;20000;-85
2023/11/20 01:20:21;;;;;;;6.95;1.50;;;10.50;99.90;;;;;;6257917;22;20098;-84
2023/11/20 01:22:47;;;;;;;9.98;2.05;;;10.50;99.90;;;;;;6261817;22;20423;-87
2023/11/20 01:25:13;;;;;;;10.27;1.20;;;10.50;99.90;;;;;;6259420;22;20004;-88
2023/11/20 01:27:39;;;;;;;6.18;1.40;;;10.50;99.90;;;;;;6257953;22;20011;-88
2023/11/20 01:30:08;;;;;;;7.65;1.50;;;10.60;99.90;;;;;;6258590;22;20053;-88
2023/11/20 01:32:34;;;;;;;11.35;1.90;;;10.60;99.90;;;;;;6260263;22;20058;-89
2023/11/20 01:35:00;;;;;;;10.32;1.98;;;10.60;99.90;;;;;;6261153;22;20445;-88
2023/11/20 01:37:26;;;;;;;5.90;1.88;;;10.70;99.90;;;;;;6272298;22;20012;-87
2023/11/20 01:39:51;;;;;;;7.93;1.77;;;10.70;99.90;;;;;;6260355;22;20011;-87
2023/11/20 01:42:17;;;;;;;5.88;1.20;;;10.70;99.90;;;;;;6259542;22;20004;-87
2023/11/20 01:44:43;;;;;;;7.70;1.02;;;10.70;99.90;;;;;;6258524;22;20004;-88
2023/11/20 01:47:11;;;;;;;7.13;1.00;;;10.60;99.90;;;;;;6285577;22;19996;-88
2023/11/20 01:49:42;;;;;;;6.55;1.25;;;10.70;99.90;;;;;;6261132;22;20000;-88
2023/11/20 01:52:09;;;;;;;9.52;1.50;;;10.60;99.90;;;;;;6259726;22;19996;-87
2023/11/20 01:54:36;;;;;;;3.47;0.85;;;10.70;99.90;;;;;;6259851;22;20323;-88
2023/11/20 01:57:05;;;;;;;3.88;0.95;;;10.70;99.90;;;;;;6256559;22;20010;-86
2023/11/20 01:59:31;;;;;;;6.03;1.25;;;10.70;99.90;;;;;;6258444;22;20000;-89
2023/11/20 02:01:57;;;;;;;4.38;0.98;;;10.70;99.90;;;;;;6261188;22;19999;-87
2023/11/20 02:04:24;;;;;;;11.48;1.67;;;10.80;99.90;;;;;;6261518;22;20008;-88
2023/11/20 02:06:50;;;;;;;10.18;3.60;;;10.80;99.90;;;;;;6262958;22;20094;-89
2023/11/20 02:09:18;;;;;;;6.00;0.98;;;10.80;99.90;;;;;;6261837;22;20007;-87
2023/11/20 02:11:49;;;;;;;5.93;1.17;;;10.80;99.90;;;;;;6260491;22;20011;-87
2023/11/20 02:14:15;;;;;;;10.32;1.15;;;10.90;99.90;;;;;;6260856;22;20008;-87
2023/11/20 02:16:41;;;;;;;3.95;1.00;;;10.80;99.90;;;;;;6261908;22;20034;-87
2023/11/20 02:19:13;;;;;;;6.95;1.98;;;10.80;99.90;;;;;;6261570;22;20035;-88
2023/11/20 02:21:39;;;;;;;17.33;2.30;;;10.70;99.90;;;;;;6262801;22;20006;-87
2023/11/20 02:24:06;;;;;;;6.15;1.10;;;10.70;99.90;;;;;;6262206;22;20004;-87
2023/11/20 02:29:16;;;;;;;4.13;0.90;;;10.70;99.90;;;;;;6284890;22;20030;-84
2023/11/20 02:31:42;;;;;;;7.03;1.30;;;10.70;99.90;;;;;;6274389;22;20000;-84
2023/11/20 02:34:08;;;;;;;7.82;1.42;;;10.80;99.90;;;;;;6284276;22;20057;-83
2023/11/20 02:36:33;;;;;;;4.38;0.93;;;10.70;99.90;;;;;;6271660;22;20486;-84
2023/11/20 02:39:01;;;;;;;8.68;1.05;;;10.80;99.90;;;;;;6284657;22;19999;-84
2023/11/20 02:41:27;;;;;;;6.72;1.63;;;10.80;99.90;;;;;;6283680;22;20011;-85
2023/11/20 02:43:52;;;;;;;7.90;1.92;;;10.80;99.90;;;;;;6276307;22;20061;-84
2023/11/20 02:46:18;;;;;;;7.47;1.67;;;10.80;99.90;;;;;;6284980;22;20007;-83
2023/11/20 02:48:44;;;;;;;9.90;1.40;;;10.80;99.90;;;;;;6274334;22;20025;-84
2023/11/20 02:51:10;;;;;;;5.28;1.50;;;10.90;99.90;;;;;;6284727;22;20472;-84
2023/11/20 02:53:36;;;;;;;6.57;1.27;;;10.80;99.90;;;;;;6271783;22;20007;-85
2023/11/20 02:56:02;;;;;;;4.63;1.20;;;10.80;99.90;;;;;;6284294;22;20082;-84
2023/11/20 02:58:27;;;;;;;6.93;1.20;;;10.80;99.90;;;;;;6284582;22;20087;-85
2023/11/20 03:00:53;;;;;;;10.30;2.53;;;10.80;99.90;;;;;;6275663;22;20003;-84
2023/11/20 03:03:20;;;;;;;8.95;2.35;;;10.80;99.90;;;;;;6284839;22;20495;-83
2023/11/20 03:05:46;;;;;;;4.40;0.75;;;10.80;99.90;;;;;;6274368;22;20007;-84
2023/11/20 03:08:12;;;;;;;5.57;1.45;;;10.80;99.90;;;;;;6283698;22;20003;-84
2023/11/20 03:10:41;;;;;;;7.43;1.70;;;10.70;99.90;;;;;;6274269;22;20385;-85
2023/11/20 03:13:07;;;;;;;7.07;1.25;;;10.70;99.90;;;;;;6284264;22;20323;-85
2023/11/20 03:15:33;;;;;;;5.95;1.40;;;10.70;99.90;;;;;;6273780;22;20112;-85
2023/11/20 03:18:00;;;;;;;3.50;1.00;;;10.70;99.90;;;;;;6285131;22;20414;-84
2023/11/20 03:20:26;;;;;;;12.07;1.70;;;10.80;99.90;;;;;;6284159;22;20022;-84
2023/11/20 03:22:52;;;;;;;5.07;1.38;;;10.70;99.90;;;;;;6276183;22;20003;-85
2023/11/20 03:25:18;;;;;;;10.25;1.65;;;10.80;99.90;;;;;;6285747;22;20011;-85
2023/11/20 03:27:43;;;;;;;7.60;1.10;;;10.80;99.90;;;;;;6275372;22;20494;-86
2023/11/20 03:30:09;;;;;;;5.40;0.82;;;10.80;99.90;;;;;;6286520;22;20010;-85
2023/11/20 03:32:38;;;;;;;5.30;1.02;;;10.80;99.90;;;;;;6273917;22;20007;-85
2023/11/20 03:35:07;;;;;;;1.48;0.90;;;10.80;99.90;;;;;;6291375;22;20087;-86
2023/11/20 03:37:34;;;;;;;5.72;1.30;;;10.80;99.90;;;;;;6284317;22;20004;-85
2023/11/20 03:39:59;;;;;;;8.68;1.08;;;10.70;99.90;;;;;;6285711;22;20042;-85
2023/11/20 03:42:25;;;;;;;5.70;1.10;;;10.70;99.90;;;;;;6285114;22;20008;-85
2023/11/20 03:44:54;;;;;;;2.50;1.00;;;10.70;99.90;;;;;;6275988;22;20004;-85
2023/11/20 03:47:20;;;;;;;5.57;1.15;;;10.70;99.90;;;;;;6284396;22;20006;-85
2023/11/20 03:49:46;;;;;;;5.85;1.02;;;10.70;99.90;;;;;;6275308;22;20003;-84
2023/11/20 03:52:12;;;;;;;5.05;1.45;;;10.70;99.90;;;;;;6285955;22;20004;-85
2023/11/20 03:54:37;;;;;;;4.93;1.15;;;10.60;99.90;;;;;;6273529;22;20007;-85
2023/11/20 03:57:04;;;;;;;6.45;0.90;;;10.60;99.90;;;;;;6284436;22;20064;-85
2023/11/20 03:59:29;;;;;;;3.35;1.15;;;10.60;99.90;;;;;;6286411;22;20311;-84
2023/11/20 04:01:55;;;;;;;8.95;1.45;;;10.60;99.90;;;;;;6277988;22;20006;-85
2023/11/20 04:04:21;;;;;;;4.63;1.10;;;10.60;99.90;;;;;;6286986;22;20000;-84
2023/11/20 04:06:47;;;;;;;4.78;1.40;;;10.50;99.90;;;;;;6275103;22;20022;-85
2023/11/20 04:09:13;;;;;;;6.57;1.15;;;10.60;99.90;;;;;;6285661;22;20052;-85
2023/11/20 04:11:40;;;;;;;5.90;1.20;;;10.60;99.90;;;;;;6273902;22;20004;-85
2023/11/20 04:14:06;;;;;;;9.43;1.45;;;10.60;99.90;;;;;;6285269;22;20021;-85
2023/11/20 04:16:33;;;;;;;9.20;0.98;;;10.70;99.90;;;;;;6284827;22;20055;-86
2023/11/20 04:19:00;;;;;;;6.30;1.13;;;10.60;99.90;;;;;;6284871;22;19999;-85
2023/11/20 04:21:26;;;;;;;3.35;0.93;;;10.60;99.90;;;;;;6286939;22;20010;-85
2023/11/20 04:23:52;;;;;;;5.60;1.27;;;10.70;99.90;;;;;;6278115;22;20075;-84
2023/11/20 04:26:18;;;;;;;4.90;1.40;;;10.60;99.90;;;;;;6285124;22;20015;-84
2023/11/20 04:28:43;;;;;;;3.53;0.68;;;10.60;99.90;;;;;;6281253;22;20337;-85
2023/11/20 04:31:09;;;;;;;2.72;0.85;;;10.60;99.90;;;;;;6283521;22;20426;-83
2023/11/20 04:33:35;;;;;;;3.08;1.25;;;10.60;99.90;;;;;;6265323;22;20017;-85
2023/11/20 04:36:02;;;;;;;2.88;1.02;;;10.60;99.90;;;;;;6265250;22;20010;-85
2023/11/20 04:38:30;;;;;;;5.03;1.48;;;10.60;99.90;;;;;;6264556;22;20005;-85
2023/11/20 04:40:57;;;;;;;7.80;1.15;;;10.60;99.90;;;;;;6263987;22;20009;-84
2023/11/20 04:43:23;;;;;;;7.70;1.85;;;10.60;99.90;;;;;;6264283;22;20025;-85
2023/11/20 04:45:49;;;;;;;8.55;1.38;;;10.50;99.90;;;;;;6265529;22;20274;-85
2023/11/20 04:48:16;;;;;;;3.45;0.75;;;10.60;99.90;;;;;;6266286;22;20104;-85
2023/11/20 04:50:43;;;;;;;2.33;0.80;;;10.60;99.90;;;;;;6266447;22;20012;-84
2023/11/20 04:53:09;;;;;;;3.60;1.17;;;10.60;99.90;;;;;;6269305;22;20134;-84
2023/11/20 04:55:35;;;;;;;5.43;0.88;;;10.60;99.90;;;;;;6265845;22;20397;-84
2023/11/20 04:58:01;;;;;;;4.93;1.45;;;10.60;99.90;;;;;;6266037;22;20055;-84
2023/11/20 05:00:27;;;;;;;4.10;1.00;;;10.60;99.90;;;;;;6265679;22;20024;-84
2023/11/20 05:02:53;;;;;;;2.72;1.20;;;10.60;99.90;;;;;;6266128;22;20089;-84
2023/11/20 05:05:19;;;;;;;3.03;1.00;;;10.60;99.90;;;;;;6267504;22;20067;-84
2023/11/20 05:07:45;;;;;;;4.97;1.20;;;10.60;99.90;;;;;;6266247;22;20009;-84
2023/11/20 05:10:11;;;;;;;5.00;1.83;;;10.60;99.90;;;;;;6265427;22;20009;-84
2023/11/20 05:12:37;;;;;;;2.72;0.85;;;10.60;99.90;;;;;;6265307;22;20006;-84
2023/11/20 05:15:03;;;;;;;4.63;0.93;;;10.60;99.90;;;;;;6267637;22;20009;-83
2023/11/20 05:17:29;;;;;;;3.70;1.40;;;10.60;99.90;;;;;;6267169;22;20002;-84
2023/11/20 05:19:55;;;;;;;8.45;1.10;;;10.60;99.90;;;;;;6268330;22;20032;-84
2023/11/20 05:22:22;;;;;;;2.72;0.75;;;10.60;99.90;;;;;;6268032;22;20470;-84
2023/11/20 05:24:48;;;;;;;4.70;1.38;;;10.50;99.90;;;;;;6268768;22;20002;-83
2023/11/20 05:27:13;;;;;;;5.57;1.00;;;10.50;99.90;;;;;;6267408;22;20021;-84
2023/11/20 05:29:39;;;;;;;6.75;1.40;;;10.40;99.90;;;;;;6267551;22;20025;-84
2023/11/20 05:32:06;;;;;;;5.60;1.52;;;10.30;99.90;;;;;;6269423;22;20092;-84
2023/11/20 05:34:37;;;;;;;2.80;1.00;;;10.40;99.90;;;;;;6267972;22;20005;-83
2023/11/20 05:37:03;;;;;;;3.30;0.95;;;10.40;99.90;;;;;;6268958;22;20002;-84
2023/11/20 05:39:29;;;;;;;6.80;1.40;;;10.40;99.90;;;;;;6270479;22;20001;-84
2023/11/20 05:41:55;;;;;;;6.25;1.17;;;10.30;99.90;;;;;;6272660;22;20035;-84
2023/11/20 05:44:20;;;;;;;7.20;2.05;;;10.30;99.90;;;;;;6171203;23;20058;-84
2023/11/20 05:46:46;;;;;;;13.48;3.22;;;10.30;99.90;;;;;;6278826;22;20010;-82
2023/11/20 05:49:12;;;;;;;6.85;1.17;;;10.30;99.90;;;;;;6281100;22;20001;-83
2023/11/20 05:51:38;;;;;;;12.13;1.92;;;10.30;99.90;;;;;;6280493;22;20005;-83
2023/11/20 05:54:08;;;;;;;9.30;2.78;;;10.30;99.90;;;;;;6280476;22;19996;-83
2023/11/20 05:56:36;;;;;;;6.22;1.27;;;10.30;99.90;;;;;;6277942;22;20005;-82
2023/11/20 05:59:02;;;;;;;8.18;1.40;;;10.30;99.90;;;;;;6279144;22;20031;-84
2023/11/20 06:01:41;;;;;;;6.25;1.70;;;10.40;99.90;;;;;;6279936;22;20021;-84
2023/11/20 06:04:08;;;;;;;7.28;1.60;;;10.30;99.90;;;;;;6279531;22;20009;-84
2023/11/20 06:06:40;;;;;;;9.52;1.85;;;10.30;99.90;;;;;;6280620;22;19996;-83
2023/11/20 06:09:10;;;;;;;5.25;1.95;;;10.30;99.90;;;;;;6280345;22;20012;-83
2023/11/20 06:11:36;;;;;;;9.88;2.08;;;10.30;99.90;;;;;;6279456;22;20002;-82
2023/11/20 06:14:03;;;;;;;5.95;1.02;;;10.30;99.90;;;;;;6276117;22;20024;-82
2023/11/20 06:16:29;;;;;;;9.10;2.03;;;10.30;99.90;;;;;;6274103;22;20036;-83
2023/11/20 06:18:55;;;;;;;11.13;3.08;;;10.30;99.90;;;;;;6264994;22;20048;-83
2023/11/20 06:21:22;;;;;;;8.73;1.65;;;10.30;99.90;;;;;;6266350;22;20010;-83
2023/11/20 06:23:48;;;;;;;11.93;1.85;;;10.30;99.90;;;;;;6263216;22;20005;-84
2023/11/20 06:26:13;;;;;;;6.97;2.38;;;10.30;99.90;;;;;;6264516;22;20006;-83
2023/11/20 06:28:43;;;;;;;6.90;1.50;;;10.30;99.90;;;;;;6266053;22;20033;-83
2023/11/20 06:31:11;;;;;;;7.72;1.48;;;10.30;99.90;;;;;;6264664;22;20439;-84
2023/11/20 06:33:37;;;;;;;7.40;1.90;;;10.30;99.90;;;;;;6263552;22;20009;-83
2023/11/20 06:36:03;;;;;;;8.13;2.25;;;10.20;99.90;;;;;;6263772;22;20005;-83
2023/11/20 06:38:29;;;;;;;12.02;2.47;;;10.20;99.90;;;;;;6266222;22;20055;-83
2023/11/20 06:40:56;;;;;;;7.95;2.38;;;10.20;99.90;;;;;;6262892;22;20013;-84
2023/11/20 06:43:22;;;;;;;11.95;1.83;;;10.20;99.90;;;;;;6262839;22;20061;-83
2023/11/20 06:45:48;;;;;;;15.95;1.92;;;10.10;99.90;;;;;;6262837;22;20005;-82
2023/11/20 06:48:14;;;;;;;7.30;1.45;;;10.10;99.90;;;;;;6262801;22;20012;-84
2023/11/20 06:50:40;;;;;;;18.10;2.10;;;10.00;99.90;;;;;;6262252;22;20006;-84
2023/11/20 06:53:08;;;;;;;21.98;4.90;;;10.00;99.90;;;;;;6263813;22;20093;-83
2023/11/20 06:55:34;;;;;;;8.73;2.53;;;10.00;99.90;;;;;;6263703;22;20061;-83
2023/11/20 06:58:00;;;;;;;19.48;3.05;;;10.10;99.90;;;;;;6262841;22;20005;-82
2023/11/20 07:00:26;;;;;;;12.32;1.67;;;10.00;99.90;;;;;;6263099;22;20021;-83
2023/11/20 07:02:52;;;;;;;13.23;2.13;;;10.00;99.90;;;;;;6262761;22;20005;-84
2023/11/20 07:05:18;;;;;;;3.97;1.38;;;10.00;99.90;;;;;;6262776;22;20006;-84
2023/11/20 07:07:51;;;;;;;14.05;2.88;;;10.00;99.90;;;;;;6263549;22;20009;-85
2023/11/20 07:10:25;;;;;;;;;;;10.00;99.90;;;;;;6262653;22;20071;-84
2023/11/20 07:12:53;;;;;;;6.53;1.87;;;10.00;99.90;;;;;;6263367;22;19911;-83
2023/11/20 07:15:20;;;;;;;15.50;3.20;;;9.90;99.90;;;;;;6262912;22;20016;-83
2023/11/20 07:17:47;;;;;;;8.40;1.63;;;10.00;99.90;;;;;;6262665;22;20005;-84
2023/11/20 07:20:13;;;;;;;10.00;1.52;;;9.90;99.90;;;;;;6263173;22;20002;-83
2023/11/20 07:22:38;;;;;;;11.88;1.73;;;9.90;99.90;;;;;;6263367;22;20021;-84
2023/11/20 07:25:05;;;;;;;8.00;2.30;;;10.00;99.90;;;;;;6263644;22;20016;-83
2023/11/20 07:27:34;;;;;;;13.23;3.20;;;10.00;99.90;;;;;;6160324;22;20037;-83
2023/11/20 07:29:59;;;;;;;8.30;1.52;;;10.10;99.90;;;;;;6264997;22;20012;-83
2023/11/20 07:32:25;;;;;;;7.05;2.00;;;10.10;99.90;;;;;;6262175;22;20013;-82
2023/11/20 07:34:51;;;;;;;8.93;1.45;;;10.20;99.90;;;;;;6262224;22;20009;-83
2023/11/20 07:37:17;;;;;;;8.85;1.77;;;10.20;99.90;;;;;;6262291;22;20080;-84
2023/11/20 07:39:43;;;;;;;13.18;1.80;;;10.20;99.90;;;;;;6262545;22;20001;-84
2023/11/20 07:42:09;;;;;;;11.50;2.35;;;10.30;99.90;;;;;;6261369;22;20002;-84
2023/11/20 07:44:35;;;;;;;11.05;3.00;;;10.20;99.90;;;;;;6262107;22;20058;-84
2023/11/20 07:47:01;;;;;;;12.23;1.63;;;10.30;99.90;;;;;;6261431;22;20446;-83
2023/11/20 07:49:27;;;;;;;8.63;2.22;;;10.30;99.90;;;;;;6261490;22;20010;-83
2023/11/20 07:51:53;;;;;;;11.70;1.85;;;10.30;99.90;;;;;;6262300;22;20010;-83
2023/11/20 07:54:19;;;;;;;9.88;2.10;;;10.40;99.90;;;;;;6262066;22;20005;-83
2023/11/20 07:56:45;;;;;;;7.25;2.58;;;10.40;99.90;;;;;;6263013;22;20052;-83
2023/11/20 07:59:10;;;;;;;9.98;2.58;;;10.30;99.90;;;;;;6262119;22;20002;-83
2023/11/20 08:01:36;;;;;;;8.88;2.00;;;10.40;99.90;;;;;;6159432;23;20001;-83
2023/11/20 08:04:04;;;;;;;9.75;1.67;;;10.40;99.90;;;;;;6262329;22;20148;-83
2023/11/20 08:06:33;;;;;;;11.18;1.70;;;10.40;99.90;;;;;;6261871;22;20069;-84
2023/11/20 08:08:59;;;;;;;7.32;2.05;;;10.40;99.90;;;;;;6262571;22;20027;-83
2023/11/20 08:11:25;;;;;;;17.20;2.58;;;10.40;99.90;;;;;;6262441;22;20009;-83
2023/11/20 08:13:51;;;;;;;11.57;1.90;;;10.40;99.90;;;;;;6262153;22;20013;-83
2023/11/20 08:16:17;;;;;;;7.63;1.60;;;10.40;99.90;;;;;;6261755;22;20028;-83
2023/11/20 08:18:43;;;;;;;20.88;2.25;;;10.40;99.90;;;;;;6262451;22;20001;-83
2023/11/20 08:21:08;;;;;;;9.38;1.73;;;10.40;99.90;;;;;;6261379;22;20009;-84
2023/11/20 08:23:34;;;;;;;10.88;3.75;;;10.50;99.90;;;;;;6262658;22;20002;-84
2023/11/20 08:26:00;;;;;;;12.82;1.67;;;10.40;99.90;;;;;;6262639;22;20029;-84
2023/11/20 08:28:26;;;;;;;10.45;2.17;;;10.50;99.90;;;;;;6262660;22;20028;-84
2023/11/20 08:30:52;;;;;;;14.98;1.92;;;10.50;99.90;;;;;;6261989;22;20012;-84
2023/11/20 08:33:18;;;;;;;17.38;2.63;;;10.50;99.90;;;;;;6261964;22;20009;-84
2023/11/20 08:35:43;;;;;;;13.32;2.10;;;10.60;99.90;;;;;;6261862;22;20058;-84
2023/11/20 08:38:09;;;;;;;15.65;2.95;;;10.70;99.90;;;;;;6263283;22;20009;-84
2023/11/20 08:40:36;;;;;;;14.10;2.33;;;10.70;99.90;;;;;;6263095;22;20243;-84
2023/11/20 08:43:03;;;;;;;34.65;2.55;;;10.70;99.90;;;;;;6262804;22;20013;-84
2023/11/20 08:45:29;;;;;;;16.80;2.92;;;10.70;99.90;;;;;;6264062;22;20013;-84
2023/11/20 08:47:56;;;;;;;12.82;3.00;;;10.80;99.90;;;;;;6263165;22;20009;-84
2023/11/20 08:50:25;;;;;;;13.27;5.13;;;10.90;99.90;;;;;;6263169;22;20059;-84
2023/11/20 08:52:52;;;;;;;12.95;3.97;;;11.00;99.90;;;;;;6262570;22;20006;-84
2023/11/20 08:55:18;;;;;;;16.73;4.32;;;11.00;99.90;;;;;;6262286;22;20060;-84
2023/11/20 08:57:44;;;;;;;20.38;5.22;;;11.00;99.90;;;;;;6261630;22;20344;-84
2023/11/20 09:00:14;;;;;;;19.92;4.95;;;11.00;99.90;;;;;;6262357;22;20002;-84
2023/11/20 09:02:42;;;;;;;33.72;9.25;;;11.00;99.90;;;;;;6261304;22;20065;-83
2023/11/20 09:05:10;;;;;;;16.55;4.47;;;10.90;99.90;;;;;;6262153;22;20465;-84
2023/11/20 09:07:36;;;;;;;12.93;4.93;;;10.90;99.90;;;;;;6261959;22;20447;-84
2023/11/20 09:10:04;;;;;;;24.63;8.25;;;11.00;99.90;;;;;;6260986;22;20443;-83
2023/11/20 09:12:33;;;;;;;14.23;5.03;;;11.00;99.90;;;;;;6261361;22;20352;-84
2023/11/20 09:14:59;;;;;;;17.05;7.30;;;11.10;99.90;;;;;;6260885;22;20497;-84
2023/11/20 09:17:25;;;;;;;14.63;3.42;;;11.10;99.90;;;;;;6261062;22;20001;-84
2023/11/20 09:19:51;;;;;;;10.52;2.70;;;11.30;99.90;;;;;;6261038;22;20001;-84
2023/11/20 09:22:17;;;;;;;17.77;3.65;;;11.40;99.90;;;;;;6260990;22;20001;-85
2023/11/20 09:24:43;;;;;;;43.63;8.68;;;11.40;99.90;;;;;;6261459;22;20501;-84
2023/11/20 09:27:10;;;;;;;15.95;3.35;;;11.60;99.90;;;;;;6261630;22;20016;-83
2023/11/20 09:29:37;;;;;;;8.60;3.25;;;11.70;99.90;;;;;;6260714;22;20043;-83
2023/11/20 09:32:03;;;;;;;19.00;5.00;;;11.80;99.90;;;;;;6260929;22;20088;-83
2023/11/20 09:34:29;;;;;;;27.73;4.47;;;11.90;99.90;;;;;;6158546;22;20012;-84
2023/11/20 09:36:56;;;;;;;18.20;3.72;;;11.90;99.90;;;;;;6261554;22;20282;-84
2023/11/20 09:39:21;;;;;;;24.00;4.78;;;11.80;99.90;;;;;;6261288;22;20032;-84
2023/11/20 09:41:47;;;;;;;13.20;3.95;;;11.70;99.90;;;;;;6261154;22;20381;-83
2023/11/20 09:44:13;;;;;;;16.00;3.83;;;11.70;99.90;;;;;;6262284;22;20569;-84
2023/11/20 09:46:44;;;;;;;8.35;1.55;;;11.60;99.90;;;;;;6261215;22;20340;-84
2023/11/20 09:49:20;;;;;;;14.27;2.40;;;11.50;99.90;;;;;;6261800;22;20001;-84
2023/11/20 09:51:48;;;;;;;10.02;2.67;;;11.50;99.90;;;;;;6262385;22;20008;-83
2023/11/20 09:54:16;;;;;;;16.80;3.38;;;11.40;99.90;;;;;;6262139;22;20500;-84
2023/11/20 09:56:42;;;;;;;12.50;3.97;;;11.40;99.90;;;;;;6261901;22;20009;-84
2023/11/20 09:59:11;;;;;;;16.33;5.18;;;11.40;99.90;;;;;;6262104;22;20006;-84
2023/11/20 10:01:40;;;;;;;29.75;7.82;;;11.30;99.90;;;;;;6261368;22;20005;-84
2023/11/20 10:04:16;;;;;;;11.82;3.17;;;11.40;99.90;;;;;;6261516;22;20066;-84
2023/11/20 10:06:44;;;;;;;15.27;3.60;;;11.30;99.90;;;;;;6261853;22;20017;-84
2023/11/20 10:09:12;;;;;;;22.77;4.75;;;11.30;99.90;;;;;;6264160;22;20451;-84
2023/11/20 10:11:40;;;;;;;17.65;4.05;;;11.30;99.90;;;;;;6262208;22;20006;-84
2023/11/20 10:14:06;;;;;;;13.40;5.18;;;11.20;99.90;;;;;;6261558;22;20024;-84
2023/11/20 10:16:35;;;;;;;14.02;6.05;;;11.00;99.90;;;;;;6261693;22;20061;-83
2023/11/20 10:19:02;;;;;;;8.07;3.15;;;11.00;99.90;;;;;;6260252;22;20001;-84
2023/11/20 10:21:29;;;;;;;9.35;2.10;;;10.90;99.90;;;;;;6261939;22;20005;-84
2023/11/20 10:23:55;;;;;;;7.65;1.90;;;10.90;99.90;;;;;;6265011;22;20001;-84
2023/11/20 10:26:24;;;;;;;12.43;1.60;;;10.90;99.90;;;;;;6263769;22;20006;-84
2023/11/20 10:28:51;;;;;;;6.82;1.80;;;11.00;99.90;;;;;;6263376;22;20077;-84
2023/11/20 10:31:17;;;;;;;6.93;2.60;;;11.00;99.90;;;;;;6261449;22;20009;-84
2023/11/20 10:33:43;;;;;;;7.68;1.80;;;11.10;99.90;;;;;;6261960;22;20033;-84
2023/11/20 10:36:14;;;;;;;16.02;2.95;;;11.10;99.90;;;;;;6262637;22;20432;-85
2023/11/20 10:38:42;;;;;;;24.98;8.88;;;11.30;99.90;;;;;;6262177;22;20009;-85
2023/11/20 10:41:11;;;;;;;22.38;6.88;;;11.30;99.90;;;;;;6262035;22;20019;-83
2023/11/20 10:43:40;;;;;;;19.67;6.70;;;11.40;99.90;;;;;;6263064;22;20012;-84
2023/11/20 10:46:06;;;;;;;11.00;3.20;;;11.50;99.90;;;;;;6262369;22;20009;-84
2023/11/20 10:48:36;;;;;;;23.33;7.40;;;11.50;99.90;;;;;;6261640;22;20462;-84
2023/11/20 10:51:08;;;;;;;7.20;1.83;;;11.50;99.90;;;;;;6262124;22;20005;-84
2023/11/20 10:53:42;;;;;;;5.32;1.75;;;11.40;99.90;;;;;;6264613;22;20013;-84
2023/11/20 10:56:10;;;;;;;6.90;1.98;;;11.40;99.90;;;;;;6263507;22;20070;-84
2023/11/20 10:58:38;;;;;;;12.02;3.60;;;11.40;99.90;;;;;;6262837;22;20408;-84
2023/11/20 11:01:07;;;;;;;6.47;1.55;;;11.30;99.90;;;;;;6262842;22;20029;-84
2023/11/20 11:03:34;;;;;;;12.60;1.80;;;11.30;99.90;;;;;;6262452;22;20125;-84
2023/11/20 11:06:03;;;;;;;5.15;2.00;;;11.30;99.90;;;;;;6262896;22;20010;-84
2023/11/20 11:08:32;;;;;;;7.55;1.70;;;11.30;99.90;;;;;;6262282;22;20084;-85
2023/11/20 11:10:59;;;;;;;6.57;2.20;;;11.20;99.90;;;;;;6263470;22;20028;-85
2023/11/20 11:13:32;;;;;;;8.18;1.55;;;11.30;99.90;;;;;;6263721;22;20012;-85
2023/11/20 11:16:00;;;;;;;7.82;1.70;;;11.20;99.90;;;;;;6262554;22;20017;-85
2023/11/20 11:18:31;;;;;;;11.98;1.70;;;11.10;99.90;;;;;;6262625;22;20009;-85
2023/11/20 11:21:01;;;;;;;9.02;2.28;;;11.20;99.90;;;;;;6262657;22;20016;-85
2023/11/20 11:23:35;;;;;;;7.07;1.17;;;11.20;99.90;;;;;;6263675;22;20467;-85
2023/11/20 11:26:10;;;;;;;3.65;1.65;;;11.30;99.90;;;;;;6263345;22;20012;-85
2023/11/20 11:28:41;;;;;;;13.65;5.40;;;11.30;99.90;;;;;;6265156;22;20451;-85
2023/11/20 11:31:09;;;;;;;11.60;2.85;;;11.10;99.90;;;;;;6262468;22;20032;-84
2023/11/20 11:33:53;;;;;;;6.70;1.80;;;11.00;99.90;;;;;;6262872;22;20031;-84
2023/11/20 11:36:28;;;;;;;27.17;6.85;;;11.00;99.90;;;;;;6262608;22;20001;-84
2023/11/20 11:39:27;;;;;;;26.40;6.57;;;11.00;99.90;;;;;;6262503;22;20081;-84
2023/11/20 11:41:58;;;;;;;15.18;4.00;;;11.10;99.90;;;;;;6235255;22;20009;-84
2023/11/20 11:44:37;;;;;;;10.25;2.05;;;11.30;99.90;;;;;;6262397;22;20005;-85
2023/11/20 11:47:10;;;;;;;5.05;2.13;;;11.40;99.90;;;;;;6261827;22;20051;-85
2023/11/20 11:49:37;;;;;;;9.23;1.67;;;11.40;99.90;;;;;;6261964;22;20009;-85
2023/11/20 11:52:08;;;;;;;3.63;2.10;;;11.50;99.90;;;;;;6262261;22;20005;-84
2023/11/20 11:54:34;;;;;;;7.28;2.22;;;11.50;99.90;;;;;;6262649;22;20391;-84
2023/11/20 11:57:09;;;;;;;8.25;1.50;;;11.60;99.90;;;;;;6262217;22;19997;-85
2023/11/20 11:59:42;;;;;;;6.22;1.65;;;11.70;99.90;;;;;;6262632;22;20008;-84
2023/11/20 12:02:09;;;;;;;7.40;1.67;;;11.70;99.90;;;;;;6263504;22;20458;-85
2023/11/20 12:04:56;;;;;;;7.20;2.05;;;11.70;99.90;;;;;;6262274;22;20005;-83
2023/11/20 12:07:40;;;;;;;7.22;1.90;;;11.60;99.90;;;;;;6262017;22;20305;-85
2023/11/20 12:10:11;;;;;;;;;;;11.60;99.90;;;;;;6262456;22;20093;-84
2023/11/20 12:12:50;;;;;;;5.88;2.35;;;11.50;99.90;;;;;;6262008;22;19909;-85
2023/11/20 12:15:37;;;;;;;5.38;1.17;;;11.40;99.90;;;;;;6261879;22;20017;-83
2023/11/20 12:18:21;;;;;;;3.53;1.58;;;11.10;99.90;;;;;;6260860;22;19998;-84
2023/11/20 12:20:49;;;;;;;7.60;1.35;;;10.90;99.90;;;;;;6262655;22;20010;-84
2023/11/20 12:23:36;;;;;;;16.48;4.55;;;10.80;99.90;;;;;;6262087;22;20001;-84
2023/11/20 12:26:06;;;;;;;2.33;1.00;;;10.80;99.90;;;;;;6262034;22;20059;-85
2023/11/20 12:28:35;;;;;;;5.15;1.20;;;10.80;99.90;;;;;;6262671;22;20026;-84
2023/11/20 12:31:06;;;;;;;8.73;3.30;;;10.90;99.90;;;;;;6261309;22;20005;-84
2023/11/20 12:33:33;;;;;;;5.10;1.60;;;11.00;99.90;;;;;;6264557;22;20096;-85
2023/11/20 12:36:00;;;;;;;1.88;1.27;;;11.10;99.90;;;;;;6262836;22;20374;-84
2023/11/20 12:38:32;;;;;;;5.85;1.85;;;11.20;99.90;;;;;;6262338;22;20344;-84
2023/11/20 12:41:03;;;;;;;4.68;1.48;;;11.20;99.90;;;;;;6261843;22;20037;-84
2023/11/20 12:43:29;;;;;;;2.92;1.98;;;11.10;99.90;;;;;;6261699;22;19998;-84
2023/11/20 12:45:55;;;;;;;4.85;1.42;;;11.10;99.90;;;;;;6263881;22;20093;-85
2023/11/20 12:48:22;;;;;;;2.13;0.88;;;11.10;99.90;;;;;;6262286;22;20009;-82